createdAt,value
2023-03-14T00:00:25.799Z,12.30
2023-03-14T00:02:57.228Z,12.90
2023-03-14T00:05:27.070Z,12.60
2023-03-14T00:07:54.311Z,12.87
2023-03-14T00:10:21.839Z,12.90
2023-03-14T00:12:48.872Z,12.43
2023-03-14T00:15:16.631Z,12.63
2023-03-14T00:17:45.316Z,12.67
2023-03-14T00:20:14.195Z,12.70
2023-03-14T00:22:43.099Z,12.87
2023-03-14T00:25:12.143Z,12.60
2023-03-14T00:27:39.838Z,12.87
2023-03-14T00:30:09.276Z,12.70
2023-03-14T00:32:36.919Z,12.80
2023-03-14T00:35:04.833Z,12.63
2023-03-14T00:37:36.182Z,12.50
2023-03-14T00:40:04.337Z,12.43
2023-03-14T00:42:33.114Z,12.30
2023-03-14T00:45:00.439Z,12.40
2023-03-14T00:47:27.585Z,12.30
2023-03-14T00:49:54.595Z,12.47
2023-03-14T00:52:21.808Z,12.60
2023-03-14T00:54:49.720Z,12.70
2023-03-14T00:57:17.159Z,12.50
2023-03-14T00:59:44.317Z,12.27
2023-03-14T01:02:14.003Z,12.37
2023-03-14T01:04:41.394Z,12.63
2023-03-14T01:07:08.481Z,12.80
2023-03-14T01:09:36.677Z,12.80
2023-03-14T01:12:07.530Z,12.97
2023-03-14T01:14:34.697Z,12.47
2023-03-14T01:17:02.089Z,12.13
2023-03-14T01:19:29.988Z,12.40
2023-03-14T01:21:57.062Z,11.83
2023-03-14T01:24:24.291Z,12.37
2023-03-14T01:26:52.552Z,12.33
2023-03-14T01:29:23.240Z,12.10
2023-03-14T01:31:50.814Z,12.70
2023-03-14T01:34:21.157Z,12.77
2023-03-14T01:36:50.837Z,12.77
2023-03-14T01:39:18.662Z,12.87
2023-03-14T01:41:46.899Z,12.90
2023-03-14T01:44:17.195Z,12.77
2023-03-14T01:46:48.929Z,12.83
2023-03-14T01:49:29.696Z,12.90
2023-03-14T01:52:05.861Z,13.83
2023-03-14T01:54:43.038Z,13.10
2023-03-14T01:57:16.504Z,13.00
2023-03-14T01:59:52.786Z,12.73
2023-03-14T02:02:21.037Z,13.50
2023-03-14T02:04:48.789Z,12.93
2023-03-14T02:07:25.634Z,13.50
2023-03-14T02:10:00.284Z,13.10
2023-03-14T02:12:31.627Z,12.53
2023-03-14T02:15:17.292Z,13.00
2023-03-14T02:18:15.012Z,12.60
2023-03-14T02:21:13.463Z,12.90
2023-03-14T02:23:52.899Z,13.13
2023-03-14T02:26:27.691Z,12.63
2023-03-14T02:28:57.822Z,12.53
2023-03-14T02:31:25.484Z,13.00
2023-03-14T02:33:53.351Z,12.70
2023-03-14T02:36:22.195Z,12.90
2023-03-14T02:39:15.433Z,12.77
2023-03-14T02:41:47.193Z,13.00
2023-03-14T02:44:14.381Z,12.83
2023-03-14T02:46:45.855Z,12.83
2023-03-14T02:49:15.661Z,12.93
2023-03-14T02:51:44.281Z,12.80
2023-03-14T02:54:12.425Z,12.67
2023-03-14T02:56:39.622Z,12.57
2023-03-14T02:59:08.349Z,12.57
2023-03-14T03:01:42.739Z,12.40
2023-03-14T03:04:09.982Z,12.83
2023-03-14T03:06:36.969Z,12.70
2023-03-14T03:09:06.784Z,13.07
2023-03-14T03:11:38.135Z,12.70
2023-03-14T03:14:06.652Z,12.53
2023-03-14T03:16:34.225Z,12.40
2023-03-14T03:19:01.523Z,12.73
2023-03-14T03:21:28.557Z,12.70
2023-03-14T03:23:55.770Z,12.80
2023-03-14T03:26:24.380Z,12.60
2023-03-14T03:28:53.056Z,13.07
2023-03-14T03:31:20.228Z,12.60
2023-03-14T03:33:48.227Z,12.93
2023-03-14T03:36:21.441Z,12.97
2023-03-14T03:38:50.033Z,12.90
2023-03-14T03:41:18.007Z,12.53
2023-03-14T03:43:45.265Z,12.80
2023-03-14T03:46:15.154Z,12.40
2023-03-14T03:48:43.960Z,12.40
2023-03-14T03:51:14.898Z,12.60
2023-03-14T03:53:42.819Z,12.93
2023-03-14T03:56:12.414Z,12.90
2023-03-14T03:58:41.004Z,12.37
2023-03-14T04:01:08.182Z,12.87
2023-03-14T04:03:36.675Z,13.17
2023-03-14T04:06:06.542Z,12.90
2023-03-14T04:08:36.367Z,13.33
2023-03-14T04:11:04.632Z,13.30
2023-03-14T04:13:56.014Z,13.77
2023-03-14T04:16:27.407Z,14.10
2023-03-14T04:19:05.044Z,14.00
2023-03-14T04:21:33.279Z,13.63
2023-03-14T04:24:00.329Z,13.73
2023-03-14T04:26:31.690Z,14.10
2023-03-14T04:28:59.041Z,13.70
2023-03-14T04:31:26.203Z,13.73
2023-03-14T04:33:54.775Z,13.50
2023-03-14T04:36:32.750Z,13.70
2023-03-14T04:39:05.752Z,13.57
2023-03-14T04:41:36.074Z,13.30
2023-03-14T04:44:03.534Z,13.80
2023-03-14T04:46:30.432Z,13.80
2023-03-14T04:48:58.282Z,13.40
2023-03-14T04:51:28.384Z,13.27
2023-03-14T04:53:55.931Z,13.47
2023-03-14T04:56:23.809Z,13.37
2023-03-14T04:58:52.878Z,13.33
2023-03-14T05:01:19.965Z,12.93
2023-03-14T05:04:07.411Z,13.30
2023-03-14T05:06:54.763Z,13.50
2023-03-14T05:09:40.548Z,13.20
2023-03-14T05:12:30.896Z,13.80
2023-03-14T05:15:18.363Z,13.63
2023-03-14T05:18:04.374Z,13.37
2023-03-14T05:20:56.801Z,13.37
2023-03-14T05:23:44.273Z,13.10
2023-03-14T05:26:31.752Z,13.57
2023-03-14T05:29:19.100Z,13.37
2023-03-14T05:31:58.180Z,13.20
2023-03-14T05:34:33.437Z,13.50
2023-03-14T05:37:28.183Z,13.10
2023-03-14T05:40:09.961Z,13.60
2023-03-14T05:42:52.203Z,13.50
2023-03-14T05:45:38.054Z,14.10
2023-03-14T05:48:05.821Z,13.90
2023-03-14T05:51:09.786Z,13.40
2023-03-14T05:53:46.104Z,13.40
2023-03-14T05:56:35.466Z,13.63
2023-03-14T05:59:26.221Z,13.70
2023-03-14T06:02:02.569Z,12.90
2023-03-14T06:04:40.656Z,13.37
2023-03-14T06:07:07.802Z,13.87
2023-03-14T06:09:37.607Z,13.63
2023-03-14T06:12:05.360Z,13.70
2023-03-14T06:14:38.328Z,13.90
2023-03-14T06:17:05.687Z,13.90
2023-03-14T06:19:39.405Z,14.17
2023-03-14T06:22:06.579Z,13.77
2023-03-14T06:24:39.772Z,13.93
2023-03-14T06:27:07.076Z,14.10
2023-03-14T06:29:34.428Z,14.63
2023-03-14T06:32:03.359Z,14.33
2023-03-14T06:34:31.537Z,14.20
2023-03-14T06:36:58.658Z,14.30
2023-03-14T06:39:26.142Z,14.30
2023-03-14T06:42:03.157Z,14.37
2023-03-14T06:44:31.013Z,14.27
2023-03-14T06:46:58.392Z,13.80
2023-03-14T06:49:25.902Z,13.90
2023-03-14T06:51:57.462Z,14.00
2023-03-14T06:54:25.189Z,13.60
2023-03-14T06:56:55.282Z,14.10
2023-03-14T06:59:25.154Z,13.87
2023-03-14T07:01:55.355Z,13.20
2023-03-14T07:04:22.432Z,13.80
2023-03-14T07:06:53.300Z,13.67
2023-03-14T07:09:20.692Z,13.07
2023-03-14T07:11:53.754Z,13.33
2023-03-14T07:14:25.082Z,13.57
2023-03-14T07:16:52.763Z,13.80
2023-03-14T07:19:20.008Z,13.40
2023-03-14T07:21:47.193Z,13.47
2023-03-14T07:24:16.154Z,13.60
2023-03-14T07:26:45.764Z,12.93
2023-03-14T07:29:12.685Z,13.37
2023-03-14T07:31:41.470Z,13.00
2023-03-14T07:34:08.759Z,13.50
2023-03-14T07:36:40.826Z,13.63
2023-03-14T07:39:07.917Z,13.40
2023-03-14T07:41:54.539Z,13.10
2023-03-14T07:44:25.610Z,12.87
2023-03-14T07:46:52.933Z,13.20
2023-03-14T07:49:20.366Z,13.00
2023-03-14T07:51:51.263Z,13.50
2023-03-14T07:54:20.219Z,13.37
2023-03-14T07:56:48.058Z,13.47
2023-03-14T07:59:15.159Z,13.27
2023-03-14T08:01:42.091Z,13.10
2023-03-14T08:04:09.371Z,11.60
2023-03-14T08:06:37.587Z,13.03
2023-03-14T08:09:05.869Z,13.00
2023-03-14T08:11:32.804Z,13.20
2023-03-14T08:13:59.897Z,13.10
2023-03-14T08:16:26.945Z,13.07
2023-03-14T08:18:54.303Z,13.50
2023-03-14T08:21:21.286Z,13.17
2023-03-14T08:23:48.349Z,13.07
2023-03-14T08:26:15.359Z,13.00
2023-03-14T08:28:42.452Z,12.93
2023-03-14T08:31:09.806Z,11.77
2023-03-14T08:33:37.005Z,12.43
2023-03-14T08:36:04.174Z,12.20
2023-03-14T08:38:32.451Z,12.20
2023-03-14T08:41:01.917Z,12.67
2023-03-14T08:43:29.663Z,12.47
2023-03-14T08:46:01.093Z,12.70
2023-03-14T08:48:30.461Z,12.43
2023-03-14T08:51:07.695Z,12.43
2023-03-14T08:53:35.027Z,12.40
2023-03-14T08:56:01.960Z,12.40
2023-03-14T08:58:30.628Z,11.90
2023-03-14T09:00:58.018Z,12.60
2023-03-14T09:03:26.287Z,13.80
2023-03-14T09:05:56.058Z,12.70
2023-03-14T09:08:23.127Z,13.03
2023-03-14T09:10:50.034Z,13.83
2023-03-14T09:13:17.136Z,13.50
2023-03-14T09:15:44.180Z,13.10
2023-03-14T09:18:14.404Z,13.00
2023-03-14T09:20:41.829Z,12.70
2023-03-14T09:23:08.934Z,13.20
2023-03-14T09:25:36.601Z,13.10
2023-03-14T09:28:03.709Z,12.80
2023-03-14T09:30:30.891Z,12.33
2023-03-14T09:32:58.962Z,12.10
2023-03-14T09:35:26.888Z,13.00
2023-03-14T09:37:55.218Z,13.20
2023-03-14T09:40:24.937Z,13.03
2023-03-14T09:42:55.596Z,12.60
2023-03-14T09:45:28.467Z,12.67
2023-03-14T09:47:59.968Z,12.50
2023-03-14T09:50:33.959Z,12.97
2023-03-14T09:53:05.866Z,13.20
2023-03-14T09:55:35.622Z,12.70
2023-03-14T09:58:12.091Z,12.03
2023-03-14T10:00:39.769Z,12.40
2023-03-14T10:03:22.583Z,12.87
2023-03-14T10:05:50.012Z,13.17
2023-03-14T10:08:17.090Z,12.93
2023-03-14T10:10:47.376Z,12.27
2023-03-14T10:13:25.262Z,12.37
2023-03-14T10:16:07.593Z,12.47
2023-03-14T10:18:35.684Z,12.23
2023-03-14T10:21:19.832Z,12.53
2023-03-14T10:23:50.111Z,12.17
2023-03-14T10:26:25.256Z,12.70
2023-03-14T10:29:04.367Z,12.50
2023-03-14T10:31:57.989Z,12.70
2023-03-14T10:34:31.652Z,12.37
2023-03-14T10:37:08.276Z,12.60
2023-03-14T10:39:50.026Z,12.20
2023-03-14T10:42:25.302Z,12.37
2023-03-14T10:44:57.450Z,12.50
2023-03-14T10:47:27.178Z,12.00
2023-03-14T10:49:57.767Z,12.17
2023-03-14T10:52:31.106Z,12.20
2023-03-14T10:55:10.593Z,12.20
2023-03-14T10:57:45.195Z,11.97
2023-03-14T11:00:24.025Z,11.97
2023-03-14T11:03:14.003Z,11.73
2023-03-14T11:05:52.786Z,11.57
2023-03-14T11:08:24.820Z,11.43
2023-03-14T11:11:08.097Z,11.40
2023-03-14T11:13:53.260Z,11.60
2023-03-14T11:16:26.487Z,11.17
2023-03-14T11:18:53.811Z,11.90
2023-03-14T11:21:46.294Z,11.60
2023-03-14T11:24:44.281Z,11.53
2023-03-14T11:27:19.039Z,11.73
2023-03-14T11:29:52.211Z,11.10
2023-03-14T11:32:28.910Z,11.70
2023-03-14T11:34:57.495Z,11.23
2023-03-14T11:37:35.089Z,11.07
2023-03-14T11:40:21.515Z,11.80
2023-03-14T11:43:04.284Z,11.67
2023-03-14T11:45:37.825Z,11.87
2023-03-14T11:48:39.335Z,11.20
2023-03-14T11:51:16.595Z,11.93
2023-03-14T11:54:23.798Z,11.70
2023-03-14T11:57:05.572Z,11.40
2023-03-14T11:59:43.600Z,11.77
2023-03-14T12:02:23.952Z,11.80
2023-03-14T12:04:57.559Z,11.53
2023-03-14T12:07:44.944Z,11.87
2023-03-14T12:10:12.723Z,11.57
2023-03-14T12:12:40.072Z,11.40
2023-03-14T12:15:19.244Z,12.23
2023-03-14T12:17:47.601Z,11.80
2023-03-14T12:20:23.523Z,11.73
2023-03-14T12:22:56.239Z,11.50
2023-03-14T12:25:25.894Z,11.70
2023-03-14T12:27:56.127Z,11.57
2023-03-14T12:30:28.634Z,11.80
2023-03-14T12:33:28.172Z,11.53
2023-03-14T12:36:02.633Z,10.80
2023-03-14T12:39:07.132Z,11.03
2023-03-14T12:41:49.757Z,11.33
2023-03-14T12:44:32.268Z,11.80
2023-03-14T12:47:42.525Z,12.07
2023-03-14T12:50:16.826Z,11.60
2023-03-14T12:52:52.861Z,12.00
2023-03-14T12:55:32.222Z,12.50
2023-03-14T12:58:15.784Z,11.80
2023-03-14T13:00:43.264Z,12.03
2023-03-14T13:03:16.369Z,11.50
2023-03-14T13:05:59.117Z,12.00
2023-03-14T13:08:42.183Z,12.20
2023-03-14T13:11:21.938Z,11.50
2023-03-14T13:13:53.238Z,13.10
2023-03-14T13:16:22.647Z,11.90
2023-03-14T13:19:02.156Z,12.07
2023-03-14T13:21:35.780Z,12.20
2023-03-14T13:24:11.040Z,11.80
2023-03-14T13:26:43.555Z,11.37
2023-03-14T13:29:16.145Z,12.43
2023-03-14T13:31:55.955Z,11.77
2023-03-14T13:34:23.213Z,11.90
2023-03-14T13:36:54.209Z,11.87
2023-03-14T13:39:25.829Z,12.27
2023-03-14T13:42:01.021Z,11.70
2023-03-14T13:44:32.769Z,11.47
2023-03-14T13:47:02.455Z,12.00
2023-03-14T13:49:33.597Z,12.03
2023-03-14T13:52:03.907Z,11.97
2023-03-14T13:54:32.886Z,12.10
2023-03-14T13:57:05.997Z,11.70
2023-03-14T13:59:35.838Z,12.30
2023-03-14T14:02:18.451Z,11.80
2023-03-14T14:04:47.725Z,11.70
2023-03-14T14:07:19.652Z,11.50
2023-03-14T14:09:57.951Z,11.17
2023-03-14T14:12:30.174Z,11.00
2023-03-14T14:15:01.908Z,11.80
2023-03-14T14:17:38.399Z,11.60
2023-03-14T14:20:09.657Z,11.63
2023-03-14T14:22:38.613Z,11.60
2023-03-14T14:25:06.452Z,11.50
2023-03-14T14:27:43.998Z,11.27
2023-03-14T14:30:19.965Z,11.23
2023-03-14T14:32:49.386Z,11.80
2023-03-14T14:35:31.841Z,11.80
2023-03-14T14:37:59.388Z,12.17
2023-03-14T14:40:29.152Z,12.17
2023-03-14T14:43:03.272Z,12.57
2023-03-14T14:45:32.459Z,11.83
2023-03-14T14:48:07.493Z,11.90
2023-03-14T14:50:39.209Z,12.00
2023-03-14T14:53:30.039Z,12.00
2023-03-14T14:56:00.378Z,12.40
2023-03-14T14:58:36.214Z,12.47
2023-03-14T15:01:11.197Z,11.73
2023-03-14T15:03:38.658Z,12.30
2023-03-14T15:06:06.214Z,12.20
2023-03-14T15:08:38.244Z,12.40
2023-03-14T15:11:06.155Z,12.47
2023-03-14T15:13:33.251Z,12.30
2023-03-14T15:16:00.700Z,11.97
2023-03-14T15:18:31.633Z,11.97
2023-03-14T15:20:58.769Z,11.30
2023-03-14T15:23:25.932Z,11.93
2023-03-14T15:25:56.166Z,12.20
2023-03-14T15:28:29.392Z,12.23
2023-03-14T15:31:00.271Z,11.80
2023-03-14T15:33:27.933Z,12.00
2023-03-14T15:35:55.061Z,11.87
2023-03-14T15:38:27.283Z,12.20
2023-03-14T15:40:54.682Z,11.93
2023-03-14T15:43:21.812Z,11.37
2023-03-14T15:45:49.115Z,11.67
2023-03-14T15:48:22.891Z,11.50
2023-03-14T15:50:50.079Z,11.60
2023-03-14T15:53:16.951Z,11.63
2023-03-14T15:55:44.139Z,11.40
2023-03-14T15:58:20.598Z,11.43
2023-03-14T16:00:49.012Z,11.90
2023-03-14T16:03:16.032Z,10.93
2023-03-14T16:05:43.705Z,11.73
2023-03-14T16:08:11.008Z,11.47
2023-03-14T16:10:39.713Z,11.87
2023-03-14T16:13:07.170Z,11.87
2023-03-14T16:15:34.380Z,10.83
2023-03-14T16:18:09.123Z,11.27
2023-03-14T16:20:48.083Z,12.70
2023-03-14T16:23:16.608Z,10.70
2023-03-14T16:25:46.016Z,11.30
2023-03-14T16:28:13.161Z,11.17
2023-03-14T16:30:40.305Z,11.33
2023-03-14T16:33:12.613Z,10.63
2023-03-14T16:35:42.517Z,10.57
2023-03-14T16:38:10.298Z,11.10
2023-03-14T16:40:37.260Z,11.60
2023-03-14T16:43:15.688Z,11.47
2023-03-14T16:45:51.848Z,11.47
2023-03-14T16:48:19.092Z,11.47
2023-03-14T16:50:46.465Z,11.90
2023-03-14T16:53:13.542Z,11.50
2023-03-14T16:55:42.716Z,10.87
2023-03-14T16:58:10.091Z,10.60
2023-03-14T17:00:38.076Z,11.10
2023-03-14T17:03:05.763Z,10.73
2023-03-14T17:05:33.525Z,11.03
2023-03-14T17:08:00.471Z,10.73
2023-03-14T17:10:27.610Z,10.87
2023-03-14T17:12:54.652Z,11.23
2023-03-14T17:15:22.698Z,10.83
2023-03-14T17:17:49.584Z,11.03
2023-03-14T17:20:17.647Z,11.60
2023-03-14T17:22:44.976Z,10.60
2023-03-14T17:25:12.129Z,10.60
2023-03-14T17:27:39.120Z,10.80
2023-03-14T17:30:07.226Z,10.30
2023-03-14T17:32:34.323Z,10.13
2023-03-14T17:35:01.677Z,10.80
2023-03-14T17:37:28.678Z,10.83
2023-03-14T17:39:57.239Z,10.53
2023-03-14T17:42:24.210Z,10.90
2023-03-14T17:44:51.360Z,10.83
2023-03-14T17:47:18.299Z,10.97
2023-03-14T17:49:46.888Z,10.80
2023-03-14T17:52:13.829Z,11.00
2023-03-14T17:54:41.008Z,10.83
2023-03-14T17:57:07.978Z,10.83
2023-03-14T17:59:35.125Z,11.00
2023-03-14T18:02:02.308Z,10.73
2023-03-14T18:04:29.598Z,11.37
2023-03-14T18:06:56.592Z,11.43
2023-03-14T18:09:23.885Z,11.47
2023-03-14T18:11:58.774Z,11.70
2023-03-14T18:14:32.368Z,11.00
2023-03-14T18:16:59.631Z,10.87
2023-03-14T18:19:26.972Z,11.00
2023-03-14T18:21:54.291Z,10.80
2023-03-14T18:24:21.711Z,10.80
2023-03-14T18:26:49.112Z,11.20
2023-03-14T18:29:16.345Z,10.97
2023-03-14T18:31:44.916Z,10.17
2023-03-14T18:34:12.423Z,10.67
2023-03-14T18:36:40.622Z,11.07
2023-03-14T18:39:09.420Z,11.60
2023-03-14T18:41:37.109Z,11.63
2023-03-14T18:44:04.353Z,10.40
2023-03-14T18:46:31.829Z,11.00
2023-03-14T18:49:06.287Z,11.10
2023-03-14T18:51:33.930Z,10.70
2023-03-14T18:54:10.653Z,10.90
2023-03-14T18:56:40.882Z,10.50
2023-03-14T18:59:09.339Z,11.00
2023-03-14T19:01:39.998Z,10.73
2023-03-14T19:04:09.436Z,10.30
2023-03-14T19:06:36.421Z,10.47
2023-03-14T19:09:06.210Z,10.83
2023-03-14T19:11:33.410Z,10.50
2023-03-14T19:14:00.762Z,10.77
2023-03-14T19:16:28.216Z,10.37
2023-03-14T19:18:55.884Z,10.47
2023-03-14T19:21:35.159Z,9.97
2023-03-14T19:24:05.504Z,10.20
2023-03-14T19:26:35.525Z,10.50
2023-03-14T19:29:03.128Z,10.90
2023-03-14T19:31:30.239Z,11.33
2023-03-14T19:33:58.886Z,10.80
2023-03-14T19:36:31.517Z,11.00
2023-03-14T19:39:02.301Z,11.00
2023-03-14T19:41:30.440Z,10.97
2023-03-14T19:43:57.690Z,9.83
2023-03-14T19:46:25.531Z,10.40
2023-03-14T19:48:55.566Z,10.93
2023-03-14T19:51:23.220Z,11.00
2023-03-14T19:53:50.619Z,10.90
2023-03-14T19:56:20.062Z,11.07
2023-03-14T19:58:47.132Z,10.90
2023-03-14T20:01:15.209Z,11.60
2023-03-14T20:03:42.429Z,10.77
2023-03-14T20:06:12.451Z,10.37
2023-03-14T20:08:40.062Z,11.63
2023-03-14T20:11:09.046Z,10.93
2023-03-14T20:13:36.281Z,10.87
2023-03-14T20:16:05.181Z,10.77
2023-03-14T20:18:32.708Z,10.33
2023-03-14T20:20:59.907Z,10.00
2023-03-14T20:23:28.068Z,10.90
2023-03-14T20:25:57.266Z,10.40
2023-03-14T20:28:24.671Z,11.13
2023-03-14T20:30:52.683Z,10.43
2023-03-14T20:33:20.216Z,10.60
2023-03-14T20:35:56.575Z,10.87
2023-03-14T20:38:26.679Z,10.40
2023-03-14T20:41:01.759Z,10.23
2023-03-14T20:43:30.679Z,11.40
2023-03-14T20:45:59.692Z,10.97
2023-03-14T20:48:28.535Z,10.90
2023-03-14T20:50:55.837Z,11.10
2023-03-14T20:53:23.806Z,10.53
2023-03-14T20:55:53.442Z,10.93
2023-03-14T20:58:20.981Z,10.93
2023-03-14T21:00:50.337Z,10.73
2023-03-14T21:03:18.937Z,11.30
2023-03-14T21:05:47.421Z,10.93
2023-03-14T21:08:15.951Z,11.30
2023-03-14T21:10:43.026Z,10.43
2023-03-14T21:13:10.287Z,11.40
2023-03-14T21:15:38.244Z,11.23
2023-03-14T21:18:05.914Z,11.20
2023-03-14T21:20:34.591Z,10.70
2023-03-14T21:23:01.742Z,10.73
2023-03-14T21:25:29.249Z,11.13
2023-03-14T21:27:56.601Z,11.37
2023-03-14T21:30:24.645Z,11.00
2023-03-14T21:32:51.949Z,10.97
2023-03-14T21:35:19.067Z,11.80
2023-03-14T21:37:46.568Z,11.97
2023-03-14T21:40:14.427Z,11.90
2023-03-14T21:42:41.496Z,12.03
2023-03-14T21:45:11.278Z,11.73
2023-03-14T21:47:39.101Z,11.63
2023-03-14T21:50:06.442Z,11.70
2023-03-14T21:52:33.878Z,11.77
2023-03-14T21:55:04.171Z,11.40
2023-03-14T21:57:31.787Z,11.83
2023-03-14T21:59:58.865Z,12.37
2023-03-14T22:02:26.200Z,11.80
2023-03-14T22:04:54.766Z,11.40
2023-03-14T22:07:21.827Z,11.60
2023-03-14T22:09:49.045Z,11.17
2023-03-14T22:12:19.682Z,12.20
2023-03-14T22:14:47.937Z,11.63
2023-03-14T22:17:15.564Z,11.67
2023-03-14T22:19:42.859Z,11.60
2023-03-14T22:22:10.008Z,11.77
2023-03-14T22:24:37.331Z,11.70
2023-03-14T22:27:04.610Z,11.17
2023-03-14T22:29:37.785Z,11.20
2023-03-14T22:32:05.889Z,10.47
2023-03-14T22:34:33.733Z,10.67
2023-03-14T22:37:04.088Z,10.80
2023-03-14T22:39:32.583Z,11.23
2023-03-14T22:42:02.163Z,11.50
2023-03-14T22:44:33.129Z,11.27
2023-03-14T22:47:01.331Z,11.20
2023-03-14T22:49:31.116Z,11.43
2023-03-14T22:51:58.486Z,11.57
2023-03-14T22:54:25.619Z,11.47
2023-03-14T22:56:52.919Z,11.53
2023-03-14T22:59:20.074Z,11.07
2023-03-14T23:01:47.310Z,11.57
2023-03-14T23:04:14.360Z,11.30
2023-03-14T23:06:41.512Z,11.50
2023-03-14T23:09:08.701Z,12.50
2023-03-14T23:11:35.861Z,12.20
2023-03-14T23:14:03.780Z,12.37
2023-03-14T23:16:39.994Z,12.90
2023-03-14T23:19:09.872Z,13.10
2023-03-14T23:21:37.470Z,12.70
2023-03-14T23:24:06.139Z,12.97
2023-03-14T23:26:36.319Z,13.50
2023-03-14T23:29:07.697Z,13.50
2023-03-14T23:31:35.020Z,13.20
2023-03-14T23:34:02.337Z,13.20
2023-03-14T23:36:30.091Z,13.57
2023-03-14T23:38:57.154Z,13.63
2023-03-14T23:41:24.294Z,13.00
2023-03-14T23:43:51.248Z,13.43
2023-03-14T23:46:18.289Z,12.80
2023-03-14T23:48:47.170Z,13.00
2023-03-14T23:51:15.284Z,13.30
2023-03-14T23:53:42.739Z,13.17
2023-03-14T23:56:15.350Z,12.90
2023-03-14T23:58:42.799Z,13.40
